Time;durP1;ratioP1;P1;durP2;ratioP2;P2;SDS_P1;SDS_P2;PMS_P1;PMS_P2;Temp;Humidity;BMP_temperature;BMP_pressure;BME280_temperature;BME280_humidity;BME280_pressure;Samples;Min_cycle;Max_cycle;Signal;HPM_P1;HPM_P2
2021/11/08 00:00:24;;;;;;;25.92;17.52;;;;;;;9.96;75.03;99991.25;1778080;79;20940;-63
2021/11/08 00:02:52;;;;;;;31.42;18.30;;;;;;;9.94;75.08;99990.67;1789058;79;21161;-64
2021/11/08 00:05:18;;;;;;;23.87;15.83;;;;;;;9.92;75.15;99982.86;1787371;79;20990;-63
2021/11/08 00:07:50;;;;;;;28.80;17.48;;;;;;;9.90;75.24;99979.56;1785100;79;21356;-63
2021/11/08 00:10:16;;;;;;;27.73;17.30;;;;;;;9.89;75.37;99975.78;1783909;79;21132;-65
2021/11/08 00:12:43;;;;;;;26.48;17.37;;;;;;;9.87;75.47;99977.87;1773687;79;21039;-62
2021/11/08 00:15:14;;;;;;;27.27;17.42;;;;;;;9.84;75.55;99970.28;1790039;78;21623;-61
2021/11/08 00:21:09;;;;;;;25.37;17.10;;;;;;;9.81;75.78;99968.34;1791005;79;20999;-65
2021/11/08 00:23:00;;;;;;;27.17;16.87;;;;;;;9.80;75.91;99968.56;1757376;79;22142;-62
2021/11/08 00:25:26;;;;;;;26.75;17.40;;;;;;;9.81;75.98;99969.67;1792078;79;21039;-63
2021/11/08 00:27:55;;;;;;;27.67;15.77;;;;;;;9.84;75.98;99962.25;1790281;79;20967;-63
2021/11/08 00:30:23;;;;;;;31.65;18.00;;;;;;;9.81;76.02;99954.95;1792462;79;21010;-63
2021/11/08 00:32:50;;;;;;;24.18;16.07;;;;;;;9.78;76.16;99957.27;1792739;79;21047;-64
2021/11/08 00:35:16;;;;;;;26.60;17.70;;;;;;;9.77;76.26;99959.11;1792709;79;21770;-63
2021/11/08 00:37:43;;;;;;;28.20;16.32;;;;;;;9.75;76.37;99955.84;1790184;79;20932;-63
2021/11/08 00:40:12;;;;;;;27.40;16.10;;;;;;;9.73;76.49;99962.45;1794271;79;20903;-63
2021/11/08 00:42:38;;;;;;;32.20;17.40;;;;;;;9.71;76.61;99961.34;1789842;79;20888;-62
2021/11/08 00:45:07;;;;;;;25.20;16.17;;;;;;;9.69;76.71;99962.09;1792396;79;21670;-62
2021/11/08 00:47:35;;;;;;;21.60;15.08;;;;;;;9.71;76.81;99959.20;1791675;79;21129;-63
2021/11/08 00:50:06;;;;;;;26.35;15.48;;;;;;;9.73;76.86;99959.78;1791517;79;20955;-63
2021/11/08 00:52:36;;;;;;;25.70;15.25;;;;;;;9.75;76.90;99957.19;1791849;79;21008;-63
2021/11/08 00:55:03;;;;;;;23.47;14.98;;;;;;;9.81;76.89;99958.16;1791511;79;21003;-64
2021/11/08 00:57:33;;;;;;;22.98;14.60;;;;;;;9.85;76.85;99960.69;1793053;79;21711;-62
2021/11/08 01:00:00;;;;;;;24.30;15.10;;;;;;;9.89;76.73;99959.71;1794038;79;21129;-64
2021/11/08 01:02:29;;;;;;;24.90;15.85;;;;;;;9.91;76.67;99953.60;1793488;79;21537;-63
2021/11/08 01:04:59;;;;;;;;;;;;;;;9.96;76.58;99968.49;1796432;79;20928;-63
2021/11/08 01:07:25;;;;;;;26.75;15.93;;;;;;;9.99;76.40;99964.02;1792279;79;20116;-63
2021/11/08 01:09:51;;;;;;;23.05;15.18;;;;;;;10.02;76.36;99961.42;1791547;79;21086;-63
2021/11/08 01:12:20;;;;;;;25.70;15.35;;;;;;;10.03;76.30;99970.58;1792144;79;21094;-63
2021/11/08 01:14:48;;;;;;;22.20;15.03;;;;;;;10.06;76.26;99964.77;1786802;79;21115;-63
2021/11/08 01:17:14;;;;;;;26.75;16.00;;;;;;;10.11;76.17;99972.13;1790513;79;20928;-62
2021/11/08 01:19:42;;;;;;;24.47;15.20;;;;;;;10.13;76.09;99970.06;1789133;79;21497;-63
2021/11/08 01:22:16;;;;;;;24.92;14.87;;;;;;;10.15;76.03;99967.96;1790479;79;20930;-62
2021/11/08 01:24:38;;;;;;;25.45;15.32;;;;;;;10.13;75.99;99973.55;1820604;78;21135;-64
2021/11/08 01:27:06;;;;;;;23.38;14.83;;;;;;;10.13;75.99;99973.55;1788957;79;21464;-65
2021/11/08 01:29:33;;;;;;;24.70;15.13;;;;;;;10.14;76.09;99974.35;1821738;78;20944;-66
2021/11/08 01:32:01;;;;;;;32.03;16.50;;;;;;;10.14;76.14;99961.80;1805745;78;20949;-67
2021/11/08 01:34:30;;;;;;;24.43;14.63;;;;;;;10.16;76.11;99950.86;1787545;79;20912;-66
2021/11/08 01:37:00;;;;;;;31.30;15.48;;;;;;;10.16;76.06;99961.04;1817465;78;24955;-67
2021/11/08 01:39:37;;;;;;;24.60;16.55;;;;;;;10.16;76.01;99960.23;1793026;79;20991;-65
2021/11/08 01:42:09;;;;;;;28.50;16.82;;;;;;;10.12;76.04;99953.15;1790947;79;21461;-65
2021/11/08 01:44:36;;;;;;;21.95;15.15;;;;;;;10.12;76.10;99951.00;1787072;79;21036;-66
2021/11/08 01:47:04;;;;;;;26.45;16.97;;;;;;;10.10;76.14;99949.05;1792513;79;21575;-65
2021/11/08 01:49:30;;;;;;;27.35;16.87;;;;;;;10.11;76.15;99944.00;1790372;79;21786;-65
2021/11/08 01:51:57;;;;;;;28.30;17.60;;;;;;;10.11;76.12;99933.29;1790531;79;20932;-65
2021/11/08 01:54:24;;;;;;;24.07;17.10;;;;;;;10.08;76.09;99931.87;1788373;79;21492;-64
2021/11/08 01:56:52;;;;;;;26.27;16.82;;;;;;;10.07;76.12;99928.92;1790964;79;20967;-64
2021/11/08 01:59:20;;;;;;;26.17;17.10;;;;;;;10.06;76.15;99926.47;1759731;79;21018;-64
2021/11/08 02:01:47;;;;;;;27.80;16.77;;;;;;;10.05;76.11;99920.80;1787073;79;21129;-65
2021/11/08 02:04:13;;;;;;;33.08;18.02;;;;;;;10.01;76.01;99917.74;1789719;79;21078;-65
2021/11/08 02:06:40;;;;;;;30.72;18.35;;;;;;;9.96;75.96;99906.91;1791579;79;21023;-63
2021/11/08 02:09:06;;;;;;;29.35;16.97;;;;;;;9.87;76.05;99908.27;1789883;79;20932;-63
2021/11/08 02:11:35;;;;;;;31.17;17.20;;;;;;;9.80;76.25;99917.20;1791816;79;21082;-62
2021/11/08 02:14:03;;;;;;;27.45;16.87;;;;;;;9.76;76.44;99913.33;1792116;79;21131;-62
2021/11/08 02:16:29;;;;;;;32.17;18.37;;;;;;;9.71;76.51;99913.16;1780742;79;20936;-65
2021/11/08 02:18:56;;;;;;;26.70;16.55;;;;;;;9.66;76.61;99906.34;1776713;79;21098;-64
2021/11/08 02:21:24;;;;;;;29.52;17.50;;;;;;;9.63;76.67;99905.45;1774412;79;20989;-65
2021/11/08 02:23:51;;;;;;;28.43;16.87;;;;;;;9.60;76.79;99901.87;1775398;79;21091;-66
2021/11/08 02:26:18;;;;;;;30.35;17.60;;;;;;;9.58;76.90;99898.59;1779757;79;22296;-65
2021/11/08 02:28:46;;;;;;;26.95;17.70;;;;;;;9.55;76.90;99896.36;1777335;79;20969;-67
2021/11/08 02:31:17;;;;;;;28.92;18.12;;;;;;;9.51;77.04;99897.84;1778556;79;21503;-66
2021/11/08 02:33:45;;;;;;;25.75;16.52;;;;;;;9.49;77.23;99892.72;1777331;79;20988;-65
2021/11/08 02:36:11;;;;;;;28.75;16.75;;;;;;;9.51;77.32;99901.86;1780225;79;21040;-65
2021/11/08 02:38:46;;;;;;;26.60;16.75;;;;;;;9.52;77.36;99909.66;1778031;79;21156;-65
2021/11/08 02:41:10;;;;;;;32.20;18.02;;;;;;;9.53;77.40;99902.47;1775857;79;20988;-65
2021/11/08 02:43:37;;;;;;;26.02;17.07;;;;;;;9.53;77.47;99901.94;1777621;79;21035;-63
2021/11/08 02:48:32;;;;;;;29.23;16.52;;;;;;;9.59;77.59;99910.41;1776806;79;20999;-63
2021/11/08 02:51:46;;;;;;;25.72;17.70;;;;;;;9.63;77.57;99908.13;1777927;79;21115;-62
2021/11/08 02:53:27;;;;;;;24.47;15.10;;;;;;;9.66;77.56;99917.05;1752292;79;21031;-63
2021/11/08 02:55:55;;;;;;;26.52;16.30;;;;;;;9.71;77.53;99912.35;1779146;79;20963;-62
2021/11/08 02:58:23;;;;;;;23.20;15.55;;;;;;;9.75;77.49;99919.70;1767627;79;21038;-63
2021/11/08 03:00:53;;;;;;;22.50;15.32;;;;;;;9.81;77.40;99922.02;1780277;79;21006;-64
2021/11/08 03:03:18;;;;;;;22.58;15.65;;;;;;;9.83;77.28;99917.24;1777572;79;21810;-64
2021/11/08 03:05:46;;;;;;;22.32;15.23;;;;;;;9.85;77.20;99921.88;1777319;79;21536;-63
2021/11/08 03:08:12;;;;;;;25.05;16.50;;;;;;;9.88;77.18;99923.27;1781493;80;20916;-63
2021/11/08 03:10:39;;;;;;;27.75;16.32;;;;;;;9.92;77.14;99913.74;1799365;79;20947;-63
2021/11/08 03:13:11;;;;;;;27.67;15.70;;;;;;;9.94;77.02;99915.70;1782225;79;21204;-63
2021/11/08 03:18:18;;;;;;;26.50;17.37;;;;;;;9.99;77.02;99919.31;1809927;78;20116;-65
2021/11/08 03:20:38;;;;;;;26.82;17.15;;;;;;;10.02;76.94;99913.22;1812788;78;20869;-64
2021/11/08 03:23:07;;;;;;;23.52;16.02;;;;;;;10.03;76.90;99923.71;1812919;78;20908;-64
2021/11/08 03:25:50;;;;;;;25.82;17.27;;;;;;;10.02;76.85;99920.73;1814494;78;21035;-65
2021/11/08 03:28:10;;;;;;;26.97;17.95;;;;;;;10.05;76.86;99916.79;1811883;78;21152;-64
2021/11/08 03:30:40;;;;;;;27.37;17.40;;;;;;;10.07;76.66;99917.37;1813860;78;20880;-63
2021/11/08 03:33:09;;;;;;;23.38;16.00;;;;;;;10.07;76.69;99918.70;1812450;78;21011;-63
2021/11/08 03:35:36;;;;;;;22.80;14.90;;;;;;;10.07;76.66;99913.34;1815765;78;21427;-63
2021/11/08 03:38:06;;;;;;;25.50;16.17;;;;;;;10.09;76.60;99920.13;1815102;78;21002;-63
2021/11/08 03:40:36;;;;;;;28.35;15.95;;;;;;;10.10;76.52;99916.41;1812935;78;21790;-63
2021/11/08 03:43:05;;;;;;;24.90;16.75;;;;;;;10.13;76.43;99921.84;1810890;78;21505;-62
2021/11/08 03:45:34;;;;;;;25.23;17.05;;;;;;;10.17;76.37;99926.52;1814214;78;21552;-63
2021/11/08 03:48:00;;;;;;;29.15;17.27;;;;;;;10.20;76.29;99925.23;1815844;78;21403;-63
2021/11/08 03:50:27;;;;;;;24.85;16.75;;;;;;;10.22;76.18;99929.02;1814334;78;21043;-63
2021/11/08 03:52:55;;;;;;;30.27;18.15;;;;;;;10.24;76.20;99932.30;1809085;78;20900;-64
2021/11/08 03:55:22;;;;;;;27.58;18.35;;;;;;;10.25;76.14;99922.70;1812976;78;20952;-63
2021/11/08 03:57:49;;;;;;;25.43;17.55;;;;;;;10.26;76.01;99915.47;1813026;78;21513;-64
2021/11/08 04:00:17;;;;;;;27.30;17.45;;;;;;;10.25;76.01;99919.22;1814794;78;21027;-63
2021/11/08 04:02:44;;;;;;;31.50;17.48;;;;;;;10.27;75.95;99922.48;1812548;78;21046;-64
2021/11/08 04:05:12;;;;;;;25.50;16.75;;;;;;;10.26;75.82;99920.33;1812988;78;21122;-65
2021/11/08 04:07:38;;;;;;;27.60;17.90;;;;;;;10.27;75.75;99921.13;1812069;78;20960;-65
2021/11/08 04:10:06;;;;;;;26.60;16.67;;;;;;;10.27;75.63;99907.74;1813207;78;21493;-65
2021/11/08 04:12:35;;;;;;;24.95;16.73;;;;;;;10.25;75.55;99907.97;1816539;77;20956;-63
2021/11/08 04:15:06;;;;;;;30.30;17.57;;;;;;;10.25;75.38;99909.31;1810471;78;20972;-63
2021/11/08 04:17:33;;;;;;;29.02;17.07;;;;;;;10.21;75.29;99916.16;1815745;78;21150;-64
2021/11/08 04:20:01;;;;;;;28.83;17.52;;;;;;;10.20;75.31;99917.19;1814765;78;20821;-63
2021/11/08 04:22:28;;;;;;;31.07;19.32;;;;;;;10.18;75.25;99910.72;1815198;78;20959;-63
2021/11/08 04:24:56;;;;;;;27.40;17.48;;;;;;;10.17;75.23;99909.11;1811874;78;20974;-65
2021/11/08 04:27:23;;;;;;;25.97;17.80;;;;;;;10.15;75.30;99911.71;1815044;77;21017;-63
2021/11/08 04:29:49;;;;;;;26.87;17.52;;;;;;;10.12;75.38;99904.94;1814405;78;21138;-65
2021/11/08 04:32:16;;;;;;;29.32;18.77;;;;;;;10.12;75.42;99909.48;1817808;78;20992;-63
2021/11/08 04:34:49;;;;;;;28.65;17.92;;;;;;;10.10;75.48;99908.38;1815941;78;20988;-63
2021/11/08 04:53:04;;;;;;;31.27;19.92;;;;;;;9.98;75.35;99906.98;1805837;78;21563;-64
2021/11/08 05:25:32;;;;;;;34.23;22.52;;;;;;;9.87;74.71;99947.89;1816167;78;20916;-63
2021/11/08 05:28:07;;;;;;;38.42;21.30;;;;;;;9.89;74.65;99943.12;1813713;78;20968;-65
2021/11/08 05:30:23;;;;;;;35.48;21.80;;;;;;;9.90;74.52;99943.42;1813488;78;20953;-67
2021/11/08 05:32:49;;;;;;;32.63;21.12;;;;;;;9.94;74.43;99945.15;1814467;78;21002;-66
2021/11/08 05:35:16;;;;;;;37.88;24.18;;;;;;;9.99;74.21;99947.95;1814480;78;21773;-67
2021/11/08 05:37:44;;;;;;;34.90;22.45;;;;;;;10.05;74.01;99951.60;1812299;78;20947;-67
2021/11/08 05:40:16;;;;;;;38.08;22.27;;;;;;;10.09;73.83;99954.13;1813940;78;20979;-66
2021/11/08 05:42:42;;;;;;;33.28;21.33;;;;;;;10.12;73.67;99961.72;1815127;78;20986;-64
2021/11/08 05:45:12;;;;;;;37.48;22.32;;;;;;;10.22;73.70;99961.16;1816875;78;21060;-65
2021/11/08 05:47:39;;;;;;;35.48;20.85;;;;;;;10.40;73.39;99964.39;1811003;78;21874;-68
2021/11/08 05:50:07;;;;;;;30.40;20.72;;;;;;;10.55;72.90;99967.46;1812012;78;20908;-64
2021/11/08 05:52:34;;;;;;;33.08;21.37;;;;;;;10.65;72.56;99962.91;1811078;78;21453;-65
2021/11/08 05:55:01;;;;;;;35.03;21.60;;;;;;;10.90;72.30;99963.27;1814810;78;21015;-63
2021/11/08 06:49:29;;;;;;;32.08;20.43;;;;;;;11.03;66.93;100000.08;1821117;77;21469;-63
2021/11/08 06:51:57;;;;;;;32.88;19.07;;;;;;;10.90;67.41;99998.94;1825096;77;20884;-62
2021/11/08 06:54:26;;;;;;;33.63;20.68;;;;;;;10.91;67.69;100006.45;1826798;77;21121;-63
2021/11/08 06:56:57;;;;;;;31.40;20.75;;;;;;;10.95;68.10;100003.61;1824293;77;21512;-63
2021/11/08 06:59:25;;;;;;;32.98;19.73;;;;;;;10.94;67.84;99996.09;1825087;77;21058;-63
2021/11/08 07:01:50;;;;;;;33.92;19.55;;;;;;;10.94;67.93;99996.60;1826529;77;28502;-65
2021/11/08 07:04:16;;;;;;;30.68;18.90;;;;;;;10.99;67.86;99997.55;1823186;77;21576;-63
2021/11/08 07:06:43;;;;;;;29.48;18.20;;;;;;;11.07;67.67;100009.84;1817630;77;21149;-62
2021/11/08 07:09:12;;;;;;;31.30;19.93;;;;;;;11.14;67.39;100008.38;1827791;77;20877;-62
2021/11/08 07:11:40;;;;;;;31.85;19.37;;;;;;;11.20;67.17;100008.29;1824193;77;21002;-62
2021/11/08 07:14:07;;;;;;;28.02;18.57;;;;;;;11.32;67.21;100014.17;1827082;77;20927;-64
2021/11/08 07:16:40;;;;;;;26.37;17.50;;;;;;;11.47;67.07;100013.72;1812168;77;21104;-61
2021/11/08 07:19:07;;;;;;;28.57;17.50;;;;;;;11.58;67.25;100023.12;1832944;77;21161;-61
2021/11/08 07:21:34;;;;;;;30.10;19.10;;;;;;;11.66;66.34;100016.61;1798326;79;21477;-61
2021/11/08 07:24:01;;;;;;;28.17;17.48;;;;;;;11.69;66.02;100005.90;1822914;77;21470;-63
2021/11/08 07:26:28;;;;;;;30.68;19.60;;;;;;;11.77;65.56;100009.59;1796258;79;21465;-62
2021/11/08 07:28:54;;;;;;;29.00;18.07;;;;;;;11.88;65.17;100013.30;1788465;79;20995;-63
2021/11/08 07:31:20;;;;;;;31.20;17.67;;;;;;;12.01;65.07;100006.36;1815909;77;21116;-62
2021/11/08 07:33:48;;;;;;;31.65;17.60;;;;;;;12.11;64.67;100003.08;1815216;78;22157;-62
2021/11/08 07:36:15;;;;;;;28.42;16.93;;;;;;;12.12;64.30;100008.76;1786631;79;21012;-62
2021/11/08 07:38:42;;;;;;;24.27;16.20;;;;;;;12.18;64.10;100010.48;1822243;77;21607;-61
2021/11/08 07:41:12;;;;;;;29.55;17.73;;;;;;;12.27;63.58;100005.03;1795462;78;21520;-61
2021/11/08 07:43:39;;;;;;;28.27;15.85;;;;;;;12.39;63.41;100009.02;1817392;78;21195;-61
2021/11/08 07:46:07;;;;;;;24.92;16.05;;;;;;;12.53;63.10;100012.27;1811313;78;20968;-65
2021/11/08 07:48:39;;;;;;;24.35;15.63;;;;;;;12.66;62.54;100013.02;1815441;78;20924;-62
2021/11/08 07:51:02;;;;;;;28.23;15.85;;;;;;;12.74;61.75;100000.55;1813547;78;21635;-62
2021/11/08 07:53:29;;;;;;;29.25;15.75;;;;;;;12.73;61.52;100008.31;1814266;78;20991;-62
2021/11/08 07:55:57;;;;;;;26.27;15.05;;;;;;;12.72;61.40;100010.70;1810491;78;21823;-62
2021/11/08 07:58:23;;;;;;;32.53;15.15;;;;;;;12.68;61.27;100010.39;1816889;78;21502;-60
2021/11/08 08:00:50;;;;;;;24.75;14.58;;;;;;;12.78;61.09;100017.30;1808930;78;21038;-63
2021/11/08 08:03:19;;;;;;;25.82;15.23;;;;;;;12.91;61.24;100022.92;1800447;78;20943;-63
2021/11/08 08:05:46;;;;;;;22.52;15.20;;;;;;;13.05;60.71;100027.98;1795076;77;21046;-63
2021/11/08 08:08:12;;;;;;;24.07;13.13;;;;;;;13.17;60.15;100036.00;1772139;79;21781;-63
2021/11/08 08:10:39;;;;;;;21.40;14.10;;;;;;;13.21;60.48;100043.34;1772537;79;21004;-64
2021/11/08 08:13:05;;;;;;;20.75;12.65;;;;;;;13.24;59.99;100048.23;1772252;79;21462;-63
2021/11/08 08:15:34;;;;;;;21.05;13.40;;;;;;;13.30;59.59;100045.09;1774677;79;20970;-63
2021/11/08 08:21:54;;;;;;;25.40;13.62;;;;;;;13.40;59.43;100037.76;1767162;78;20976;-63
2021/11/08 08:27:51;;;;;;;23.05;13.78;;;;;;;13.50;58.64;100035.23;1765528;80;21579;-63
2021/11/08 08:33:48;;;;;;;27.15;13.13;;;;;;;13.54;58.65;100047.12;1762984;80;20964;-63
2021/11/08 08:39:47;;;;;;;18.30;11.55;;;;;;;13.56;57.10;100047.70;1751715;80;20967;-63
2021/11/08 08:42:33;;;;;;;20.48;11.80;;;;;;;13.37;56.63;100032.33;1731649;80;21575;-63
2021/11/08 08:45:00;;;;;;;15.20;10.48;;;;;;;13.14;56.18;100029.22;1682668;83;21010;-63
2021/11/08 08:47:27;;;;;;;20.60;10.00;;;;;;;12.90;56.37;100040.11;1689875;83;21556;-63
2021/11/08 08:49:53;;;;;;;16.95;11.08;;;;;;;12.73;56.28;100054.84;1693122;83;21130;-64
2021/11/08 08:52:20;;;;;;;20.50;11.63;;;;;;;12.60;56.59;100048.41;1692085;83;21047;-64
2021/11/08 08:54:47;;;;;;;16.37;10.50;;;;;;;12.60;57.13;100048.41;1688917;84;21014;-63
2021/11/08 08:57:13;;;;;;;18.48;9.90;;;;;;;12.73;57.10;100043.28;1685246;84;21043;-63
2021/11/08 08:59:40;;;;;;;17.70;10.93;;;;;;;12.80;56.16;100037.23;1681785;83;21493;-63
2021/11/08 09:02:08;;;;;;;17.95;10.82;;;;;;;12.78;55.99;100037.47;1689585;84;21285;-64
2021/11/08 09:04:35;;;;;;;22.20;11.08;;;;;;;12.65;56.20;100038.27;1684717;84;20924;-63
2021/11/08 09:07:02;;;;;;;15.40;11.15;;;;;;;12.57;56.02;100032.24;1689871;84;21016;-64
2021/11/08 09:09:31;;;;;;;20.20;10.60;;;;;;;12.47;56.52;100032.05;1690689;84;20957;-63
2021/11/08 09:11:58;;;;;;;18.40;9.98;;;;;;;12.36;56.88;100042.30;1689000;83;20991;-63
2021/11/08 09:14:31;;;;;;;19.45;10.68;;;;;;;12.30;56.77;100048.62;1682027;84;21594;-64
2021/11/08 09:16:58;;;;;;;20.77;11.03;;;;;;;12.17;56.09;100045.66;1685242;84;20967;-64
2021/11/08 09:19:25;;;;;;;17.80;10.63;;;;;;;12.00;56.37;100053.11;1689209;83;21019;-63
2021/11/08 09:21:52;;;;;;;16.90;10.65;;;;;;;11.98;56.47;100061.91;1688746;84;21011;-63
2021/11/08 09:24:22;;;;;;;19.12;10.95;;;;;;;11.96;56.29;100057.31;1685785;83;21556;-65
2021/11/08 09:26:48;;;;;;;18.55;10.75;;;;;;;11.83;56.67;100065.58;1689959;84;21821;-64
2021/11/08 09:29:18;;;;;;;18.00;10.85;;;;;;;11.78;56.93;100067.63;1686549;84;21054;-63
2021/11/08 09:31:45;;;;;;;17.32;10.58;;;;;;;11.81;56.87;100074.41;1682607;84;21063;-63
2021/11/08 09:34:16;;;;;;;18.10;11.25;;;;;;;11.77;57.54;100072.69;1670236;83;20939;-63
2021/11/08 09:36:43;;;;;;;;;;;;;;;11.71;57.33;100068.27;1686584;83;21031;-63
2021/11/08 09:39:27;;;;;;;16.75;10.08;;;;;;;11.72;57.56;100061.84;1678883;84;22038;-62
2021/11/08 09:41:59;;;;;;;14.15;9.70;;;;;;;11.74;57.28;100061.08;1679301;84;21028;-64
2021/11/08 09:48:19;;;;;;;17.07;10.43;;;;;;;11.72;57.35;100073.39;1712839;81;21026;-63
2021/11/08 09:54:18;;;;;;;20.25;11.38;;;;;;;11.62;57.63;100072.34;1714698;82;20948;-63
2021/11/08 10:00:29;;;;;;;21.68;11.70;;;;;;;11.52;57.92;100062.17;1707389;82;32644;-64
2021/11/08 10:06:28;;;;;;;25.12;12.55;;;;;;;11.70;58.66;100057.22;1698117;84;21018;-64
2021/11/08 10:12:25;;;;;;;26.07;11.43;;;;;;;11.90;57.62;100056.88;1745228;81;21024;-64
2021/11/08 10:18:48;;;;;;;20.82;11.63;;;;;;;12.00;57.71;100068.39;1749240;80;20922;-64
2021/11/08 10:24:46;;;;;;;18.20;11.40;;;;;;;12.15;56.46;100047.25;1747158;81;20938;-63
2021/11/08 10:30:45;;;;;;;22.90;12.07;;;;;;;11.98;57.41;100058.42;1746734;81;21062;-63
2021/11/08 10:36:42;;;;;;;19.20;11.63;;;;;;;11.82;56.81;100070.14;1748689;81;20973;-63
2021/11/08 10:42:42;;;;;;;20.00;11.25;;;;;;;11.68;56.71;100087.52;1741878;81;20922;-64
2021/11/08 10:45:08;;;;;;;18.25;10.95;;;;;;;11.46;56.71;100088.06;1765530;79;21014;-65
2021/11/08 10:47:37;;;;;;;18.30;10.48;;;;;;;11.31;57.37;100096.55;1753109;79;20888;-64
2021/11/08 10:50:14;;;;;;;20.92;11.25;;;;;;;11.24;57.72;100107.91;1775031;79;21452;-64
2021/11/08 10:52:42;;;;;;;18.52;10.88;;;;;;;11.21;57.96;100104.34;1772281;79;21056;-64
2021/11/08 10:55:08;;;;;;;18.42;10.93;;;;;;;11.19;58.07;100105.11;1775993;79;21441;-63
2021/11/08 10:57:36;;;;;;;20.97;11.03;;;;;;;11.17;58.32;100101.31;1778210;79;20935;-65
2021/11/08 11:00:09;;;;;;;22.35;11.45;;;;;;;11.18;58.60;100097.56;1767352;79;20967;-63
2021/11/08 11:02:36;;;;;;;19.10;10.63;;;;;;;11.22;58.43;100094.72;1766497;79;21081;-64
2021/11/08 11:05:06;;;;;;;21.62;10.93;;;;;;;11.26;58.37;100088.36;1763965;81;21091;-64
2021/11/08 11:07:37;;;;;;;17.30;10.43;;;;;;;11.30;58.39;100080.69;1745294;81;20995;-63
2021/11/08 11:10:11;;;;;;;17.90;10.70;;;;;;;11.36;58.31;100073.86;1765237;79;21015;-63
2021/11/08 11:12:47;;;;;;;16.93;9.85;;;;;;;11.42;58.28;100078.83;1762379;81;20986;-63
2021/11/08 11:15:17;;;;;;;15.05;10.15;;;;;;;11.53;58.21;100066.50;1770290;79;21007;-63
2021/11/08 11:17:59;;;;;;;22.77;10.68;;;;;;;11.57;57.39;100069.83;1774898;79;21158;-64
2021/11/08 11:20:31;;;;;;;19.40;10.60;;;;;;;11.54;57.53;100074.32;1773976;79;21513;-63
2021/11/08 11:23:10;;;;;;;20.68;10.60;;;;;;;11.55;57.76;100075.13;1774421;79;21013;-63
2021/11/08 11:25:41;;;;;;;19.57;10.78;;;;;;;11.55;57.65;100074.59;1771658;79;20967;-62
2021/11/08 11:28:09;;;;;;;17.37;10.63;;;;;;;11.52;57.94;100084.45;1774389;79;21018;-62
2021/11/08 11:30:40;;;;;;;19.10;10.90;;;;;;;11.49;58.00;100091.63;1775205;79;21482;-65
2021/11/08 11:33:11;;;;;;;17.15;11.63;;;;;;;11.50;58.23;100088.44;1773398;79;21658;-68
2021/11/08 11:35:54;;;;;;;13.72;8.98;;;;;;;11.50;57.81;100085.22;1772953;79;21028;-66
2021/11/08 11:38:28;;;;;;;18.67;10.00;;;;;;;11.44;58.03;100083.97;1779603;79;20939;-66
2021/11/08 11:41:19;;;;;;;18.70;10.65;;;;;;;11.30;58.01;100092.77;1781803;79;21043;-68
2021/11/08 11:43:58;;;;;;;19.07;9.35;;;;;;;11.22;58.58;100085.33;1777338;79;21183;-67
2021/11/08 11:46:27;;;;;;;13.15;8.80;;;;;;;11.18;58.42;100089.52;1764058;79;21019;-68
2021/11/08 11:48:55;;;;;;;16.07;8.98;;;;;;;11.16;58.36;100084.08;1779588;79;21009;-69
2021/11/08 11:51:27;;;;;;;12.40;6.72;;;;;;;11.11;58.69;100081.27;1774699;79;20958;-69
2021/11/08 11:53:55;;;;;;;12.07;6.70;;;;;;;11.08;58.27;100064.30;1777372;79;20991;-68
2021/11/08 11:56:24;;;;;;;10.85;7.12;;;;;;;11.07;58.09;100061.31;1771021;79;21120;-67
2021/11/08 11:58:50;;;;;;;;;;;;;;;11.03;57.82;100064.45;1780496;79;20959;-68
2021/11/08 12:01:20;;;;;;;13.85;6.75;;;;;;;11.01;57.78;100079.12;1771566;79;20112;-63
2021/11/08 12:03:49;;;;;;;13.55;6.00;;;;;;;11.01;57.80;100081.81;1775128;78;21040;-64
2021/11/08 12:06:23;;;;;;;9.88;5.97;;;;;;;11.03;57.79;100076.52;1777871;79;20946;-65
2021/11/08 12:08:53;;;;;;;13.45;6.58;;;;;;;11.06;57.79;100081.96;1779135;79;21100;-65
2021/11/08 12:11:32;;;;;;;15.05;7.42;;;;;;;11.00;57.77;100086.37;1786310;79;20947;-65
2021/11/08 12:14:03;;;;;;;11.90;6.67;;;;;;;10.92;57.88;100097.41;1786382;79;20918;-64
2021/11/08 12:16:33;;;;;;;12.82;6.42;;;;;;;10.85;58.02;100106.89;1780860;79;20963;-64
2021/11/08 12:19:01;;;;;;;11.10;6.90;;;;;;;10.82;58.17;100104.67;1785697;79;21013;-64
2021/11/08 12:21:32;;;;;;;9.90;6.90;;;;;;;10.85;58.03;100098.01;1786591;79;21437;-66
2021/11/08 12:24:01;;;;;;;13.75;7.22;;;;;;;10.81;58.09;100094.97;1757374;79;21002;-66
2021/11/08 12:26:30;;;;;;;16.57;7.80;;;;;;;10.75;58.57;100096.39;1778377;79;26915;-66
2021/11/08 12:29:13;;;;;;;12.88;6.35;;;;;;;10.73;58.80;100110.55;1782793;79;20864;-67
2021/11/08 12:31:40;;;;;;;12.10;6.62;;;;;;;10.72;59.14;100105.72;1778316;79;21442;-65
2021/11/08 12:34:13;;;;;;;10.38;6.67;;;;;;;10.69;58.73;100107.52;1789612;79;21060;-65
2021/11/08 12:36:39;;;;;;;18.40;7.55;;;;;;;10.66;58.81;100106.09;1784730;79;20927;-67
2021/11/08 12:39:11;;;;;;;14.33;7.78;;;;;;;10.62;58.98;100109.45;1744760;79;21470;-63
2021/11/08 12:41:47;;;;;;;12.55;7.55;;;;;;;10.58;58.96;100110.41;1773839;79;20899;-63
2021/11/08 12:45:49;;;;;;;11.08;7.00;;;;;;;10.56;59.10;100104.47;1797186;79;21791;-64
2021/11/08 12:48:17;;;;;;;12.07;6.67;;;;;;;10.49;59.07;100121.95;1767878;80;20887;-64
2021/11/08 12:50:54;;;;;;;10.95;7.37;;;;;;;10.47;59.31;100125.92;1770411;80;21140;-65
2021/11/08 12:53:32;;;;;;;18.85;7.67;;;;;;;10.42;59.51;100124.41;1776413;80;21589;-64
2021/11/08 12:56:02;;;;;;;18.37;7.50;;;;;;;10.44;59.54;100129.05;1774121;80;20994;-63
2021/11/08 12:58:36;;;;;;;12.88;7.20;;;;;;;10.49;59.50;100134.01;1774377;80;20971;-63
2021/11/08 13:01:04;;;;;;;16.57;7.92;;;;;;;10.56;59.55;100131.27;1774420;80;20908;-64
2021/11/08 13:03:35;;;;;;;15.05;7.85;;;;;;;10.62;59.61;100133.58;1771736;80;21118;-63
2021/11/08 13:06:00;;;;;;;20.75;8.25;;;;;;;10.64;59.34;100138.19;1743671;80;21540;-63
2021/11/08 13:08:29;;;;;;;14.87;8.13;;;;;;;10.63;59.15;100133.36;1738965;80;20947;-63
2021/11/08 13:11:15;;;;;;;15.35;8.40;;;;;;;10.65;59.20;100127.77;1768819;80;21069;-63
2021/11/08 13:13:56;;;;;;;13.48;8.30;;;;;;;10.67;59.09;100126.51;1770814;80;21090;-64
2021/11/08 13:16:33;;;;;;;14.75;9.58;;;;;;;10.71;58.97;100132.23;1756821;80;21153;-63
2021/11/08 13:19:06;;;;;;;14.78;9.53;;;;;;;10.73;58.72;100139.52;1775575;80;20986;-62
2021/11/08 13:21:35;;;;;;;18.15;9.85;;;;;;;10.70;58.69;100135.94;1775803;80;21453;-63
2021/11/08 13:24:03;;;;;;;19.97;9.73;;;;;;;10.67;58.77;100131.03;1771250;80;20990;-63
2021/11/08 13:26:30;;;;;;;18.55;9.00;;;;;;;10.71;58.80;100140.80;1770282;80;20991;-63
2021/11/08 13:28:56;;;;;;;15.32;9.50;;;;;;;10.72;58.63;100149.13;1776509;80;21139;-63
2021/11/08 13:31:23;;;;;;;17.17;9.35;;;;;;;10.74;58.64;100150.55;1773817;79;20958;-63
2021/11/08 13:33:52;;;;;;;16.35;10.30;;;;;;;10.77;58.60;100158.66;1704106;83;21018;-64
2021/11/08 13:36:20;;;;;;;15.80;10.58;;;;;;;10.79;58.55;100161.93;1736286;81;21073;-63
2021/11/08 13:38:53;;;;;;;18.48;10.65;;;;;;;10.79;58.65;100158.75;1703142;83;20967;-64
2021/11/08 13:41:25;;;;;;;18.05;10.55;;;;;;;10.82;58.71;100150.75;1711599;83;21025;-63
2021/11/08 13:44:03;;;;;;;19.73;10.40;;;;;;;10.86;58.72;100155.47;1733523;81;20992;-65
2021/11/08 13:46:38;;;;;;;21.73;10.23;;;;;;;10.90;58.69;100169.77;1746519;81;21834;-63
2021/11/08 13:49:13;;;;;;;23.47;12.05;;;;;;;10.88;58.79;100165.97;1745162;81;20995;-64
2021/11/08 13:51:50;;;;;;;22.67;12.47;;;;;;;10.91;58.89;100157.97;1747120;81;20893;-63
2021/11/08 13:54:31;;;;;;;27.05;15.53;;;;;;;10.93;58.83;100157.24;1708268;83;21177;-63
2021/11/08 13:57:10;;;;;;;17.67;10.78;;;;;;;10.92;58.82;100159.09;1748381;81;21019;-63
2021/11/08 13:59:41;;;;;;;14.70;8.68;;;;;;;10.95;58.49;100168.55;1745446;81;21110;-63
2021/11/08 14:02:11;;;;;;;12.78;8.78;;;;;;;10.92;58.36;100155.59;1747873;81;21399;-64